Time;durP1;ratioP1;P1;durP2;ratioP2;P2;SDS_P1;SDS_P2;PMS_P1;PMS_P2;Temp;Humidity;BMP_temperature;BMP_pressure;BME280_temperature;BME280_humidity;BME280_pressure;Samples;Min_cycle;Max_cycle;Signal;HPM_P1;HPM_P2
2023/11/12 00:01:35;;;;;;;16.40;5.95;;;6.30;99.90;;;;;;5103059;27;20279;-55
2023/11/12 00:04:01;;;;;;;13.18;5.70;;;6.30;99.90;;;;;;5104559;27;20662;-54
2023/11/12 00:06:28;;;;;;;14.50;5.35;;;6.30;99.90;;;;;;5121790;27;20195;-58
2023/11/12 00:08:55;;;;;;;11.77;5.90;;;6.30;99.90;;;;;;5122318;27;20188;-55
2023/11/12 00:11:22;;;;;;;14.30;6.60;;;6.30;99.90;;;;;;5121298;27;20185;-56
2023/11/12 00:13:48;;;;;;;8.82;6.20;;;6.30;99.90;;;;;;5121210;27;20191;-57
2023/11/12 00:16:15;;;;;;;14.02;6.00;;;6.30;99.90;;;;;;5121891;27;20183;-58
2023/11/12 00:18:40;;;;;;;14.15;6.95;;;6.30;99.90;;;;;;5122034;27;20229;-59
2023/11/12 00:21:06;;;;;;;14.07;6.55;;;6.30;99.90;;;;;;5102692;27;20530;-58
2023/11/12 00:23:33;;;;;;;13.15;6.93;;;6.30;99.90;;;;;;5122611;27;20219;-54
2023/11/12 00:25:59;;;;;;;11.30;6.20;;;6.30;99.90;;;;;;5120560;27;20191;-58
2023/11/12 00:28:25;;;;;;;14.88;6.97;;;6.30;99.90;;;;;;5103411;27;20188;-58
2023/11/12 00:30:51;;;;;;;13.35;7.00;;;6.30;99.90;;;;;;5086897;27;20192;-57
2023/11/12 00:33:17;;;;;;;15.77;8.27;;;6.30;99.90;;;;;;5099302;27;20184;-57
2023/11/12 00:35:44;;;;;;;14.63;8.27;;;6.30;99.90;;;;;;5103286;27;20180;-55
2023/11/12 00:38:10;;;;;;;17.75;8.95;;;6.30;99.90;;;;;;5081144;28;20299;-60
2023/11/12 00:40:36;;;;;;;16.02;8.55;;;6.30;99.90;;;;;;5085901;27;20199;-60
2023/11/12 00:43:02;;;;;;;15.13;9.05;;;6.30;99.90;;;;;;5088196;28;20228;-56
2023/11/12 00:45:29;;;;;;;19.70;9.30;;;6.30;99.90;;;;;;5100575;28;20185;-59
2023/11/12 00:47:57;;;;;;;13.65;9.68;;;6.20;99.90;;;;;;5120922;27;20237;-57
2023/11/12 00:50:23;;;;;;;15.93;9.57;;;6.30;99.90;;;;;;5102322;28;20181;-60
2023/11/12 00:52:49;;;;;;;17.77;10.45;;;6.30;99.90;;;;;;5102712;28;20295;-59
2023/11/12 00:55:15;;;;;;;20.75;10.13;;;6.30;99.90;;;;;;5120205;27;20178;-58
2023/11/12 00:57:41;;;;;;;16.10;9.93;;;6.30;99.90;;;;;;5069723;28;20247;-55
2023/11/12 01:00:08;;;;;;;21.33;10.40;;;6.30;99.90;;;;;;5096540;28;20195;-57
2023/11/12 01:02:34;;;;;;;21.70;11.05;;;6.30;99.90;;;;;;5101870;28;20259;-57
2023/11/12 01:05:01;;;;;;;17.05;11.20;;;6.30;99.90;;;;;;5121091;28;20192;-58
2023/11/12 01:07:27;;;;;;;18.45;11.48;;;6.30;99.90;;;;;;5121871;28;20678;-57
2023/11/12 01:09:52;;;;;;;16.70;11.95;;;6.30;99.90;;;;;;5120680;28;20188;-58
2023/11/12 01:12:19;;;;;;;26.23;12.82;;;6.20;99.90;;;;;;5078988;28;20235;-57
2023/11/12 01:14:45;;;;;;;22.92;12.85;;;6.20;99.90;;;;;;5120406;28;20207;-56
2023/11/12 01:17:12;;;;;;;21.67;14.05;;;6.20;99.90;;;;;;5121703;28;20185;-58
2023/11/12 01:19:39;;;;;;;28.52;14.77;;;6.10;99.90;;;;;;5120908;28;20241;-53
2023/11/12 01:22:05;;;;;;;27.77;14.90;;;6.10;99.90;;;;;;5102592;28;20189;-59
2023/11/12 01:24:32;;;;;;;28.50;16.70;;;6.10;99.90;;;;;;5102679;28;20216;-60
2023/11/12 01:26:58;;;;;;;27.73;16.00;;;6.00;99.90;;;;;;5121396;28;20265;-55
2023/11/12 01:29:25;;;;;;;27.95;17.02;;;6.00;99.90;;;;;;5121557;28;20652;-54
2023/11/12 01:31:51;;;;;;;29.00;17.40;;;6.00;99.90;;;;;;5090673;28;20288;-60
2023/11/12 01:34:18;;;;;;;31.63;18.08;;;6.00;99.90;;;;;;5120136;28;20291;-56
2023/11/12 01:36:44;;;;;;;32.08;18.75;;;5.90;99.90;;;;;;5091080;28;20607;-55
2023/11/12 01:39:12;;;;;;;33.50;19.25;;;5.90;99.90;;;;;;5103131;28;20275;-57
2023/11/12 01:41:38;;;;;;;38.40;19.98;;;5.90;99.90;;;;;;5120412;28;20180;-56
2023/11/12 01:44:04;;;;;;;44.67;20.75;;;5.90;99.90;;;;;;5120523;28;20247;-59
2023/11/12 01:46:30;;;;;;;54.75;20.50;;;5.90;99.90;;;;;;5119614;28;20185;-58
2023/11/12 01:48:58;;;;;;;58.63;21.40;;;5.90;99.90;;;;;;5102365;28;20207;-52
2023/11/12 01:51:26;;;;;;;68.38;22.48;;;5.90;99.90;;;;;;5120121;28;20247;-57
2023/11/12 01:53:53;;;;;;;96.53;21.48;;;5.90;99.90;;;;;;5120735;28;20237;-60
2023/11/12 01:56:20;;;;;;;183.77;21.85;;;6.00;99.90;;;;;;5121189;28;20686;-61
2023/11/12 01:58:52;;;;;;;103.32;21.73;;;6.00;99.90;;;;;;5120965;28;20553;-59
2023/11/12 02:01:19;;;;;;;101.07;21.50;;;6.00;99.90;;;;;;5102270;28;20185;-57
2023/11/12 02:03:46;;;;;;;129.02;22.85;;;6.00;99.90;;;;;;5101826;28;20216;-57
2023/11/12 02:06:12;;;;;;;70.80;21.90;;;6.00;99.90;;;;;;5102441;27;20185;-56
2023/11/12 02:08:42;;;;;;;94.25;21.92;;;6.00;99.90;;;;;;5092493;27;20181;-57
2023/11/12 02:11:09;;;;;;;69.00;22.48;;;6.00;99.90;;;;;;5093632;27;20664;-58
2023/11/12 02:13:43;;;;;;;110.57;21.83;;;6.10;99.90;;;;;;5123469;27;20176;-54
2023/11/12 02:16:09;;;;;;;83.68;21.80;;;6.10;99.90;;;;;;5124860;27;20235;-57
2023/11/12 02:18:35;;;;;;;76.47;22.55;;;6.10;99.90;;;;;;5104271;27;20274;-56
2023/11/12 02:21:02;;;;;;;67.97;22.17;;;6.10;99.90;;;;;;5105393;27;20188;-57
2023/11/12 02:23:29;;;;;;;58.35;22.10;;;6.10;99.90;;;;;;5105461;27;20216;-61
2023/11/12 02:25:58;;;;;;;67.07;22.77;;;6.10;99.90;;;;;;5083405;27;20199;-58
2023/11/12 02:28:24;;;;;;;64.28;23.67;;;6.10;99.90;;;;;;5123161;27;20181;-59
2023/11/12 02:30:55;;;;;;;63.05;24.38;;;6.10;99.90;;;;;;5106339;27;20766;-60
2023/11/12 02:33:27;;;;;;;62.63;23.45;;;6.10;99.90;;;;;;5097874;27;20581;-57
2023/11/12 02:35:56;;;;;;;66.72;23.48;;;6.10;99.90;;;;;;5105150;27;21082;-59
2023/11/12 02:38:23;;;;;;;55.28;24.30;;;6.10;99.90;;;;;;5103522;27;20189;-59
2023/11/12 02:40:50;;;;;;;54.42;23.58;;;6.10;99.90;;;;;;5123430;27;20271;-58
2023/11/12 02:43:17;;;;;;;58.10;23.38;;;6.00;99.90;;;;;;5102610;27;21106;-60
2023/11/12 02:45:44;;;;;;;69.05;24.00;;;6.10;99.90;;;;;;5123453;27;20215;-59
2023/11/12 02:48:11;;;;;;;74.18;24.42;;;6.10;99.90;;;;;;5102267;27;20265;-59
2023/11/12 02:50:37;;;;;;;90.35;24.15;;;6.10;99.90;;;;;;5121914;27;20184;-60
2023/11/12 02:53:05;;;;;;;55.13;22.95;;;6.10;99.90;;;;;;5123250;27;20184;-56
2023/11/12 02:55:33;;;;;;;83.22;24.02;;;6.10;99.90;;;;;;5122680;27;20169;-59
2023/11/12 02:58:00;;;;;;;77.50;23.30;;;6.10;99.90;;;;;;5123921;27;20177;-54
2023/11/12 03:00:27;;;;;;;43.30;22.77;;;6.00;99.90;;;;;;5104945;27;20722;-54
2023/11/12 03:02:55;;;;;;;49.63;23.15;;;6.00;99.90;;;;;;5105038;27;20257;-54
2023/11/12 03:05:20;;;;;;;43.83;23.23;;;6.00;99.90;;;;;;5088880;27;20232;-57
2023/11/12 03:07:46;;;;;;;38.35;21.67;;;6.00;99.90;;;;;;5123041;27;20188;-57
2023/11/12 03:10:13;;;;;;;38.60;22.13;;;6.00;99.90;;;;;;5100680;27;20185;-55
2023/11/12 03:12:39;;;;;;;38.80;21.85;;;6.00;99.90;;;;;;5095307;27;20662;-60
2023/11/12 03:15:06;;;;;;;39.95;20.98;;;6.00;99.90;;;;;;5103176;27;20640;-56
2023/11/12 03:17:34;;;;;;;36.15;20.38;;;6.10;99.90;;;;;;5104992;27;20184;-53
2023/11/12 03:20:03;;;;;;;35.85;21.00;;;6.10;99.90;;;;;;5103661;27;20207;-58
2023/11/12 03:22:31;;;;;;;39.60;21.90;;;6.10;99.90;;;;;;5123124;27;20264;-59
2023/11/12 03:24:58;;;;;;;45.20;23.85;;;6.00;99.90;;;;;;5104783;27;20203;-57
2023/11/12 03:27:25;;;;;;;49.08;24.02;;;6.10;99.90;;;;;;5123410;27;20225;-58
2023/11/12 03:29:51;;;;;;;51.40;26.20;;;6.10;99.90;;;;;;5105276;27;20191;-55
2023/11/12 03:32:18;;;;;;;46.72;24.23;;;6.10;99.90;;;;;;5094992;27;20200;-58
2023/11/12 03:34:44;;;;;;;50.28;24.92;;;6.10;99.90;;;;;;5104263;27;20184;-57
2023/11/12 03:37:10;;;;;;;42.50;22.92;;;6.10;99.90;;;;;;5105013;27;20200;-60
2023/11/12 03:39:36;;;;;;;39.85;22.40;;;6.20;99.90;;;;;;5064788;27;20180;-55
2023/11/12 03:42:02;;;;;;;39.42;21.92;;;6.10;99.90;;;;;;5103931;27;20188;-58
2023/11/12 03:44:28;;;;;;;43.60;23.08;;;6.20;99.90;;;;;;5121946;27;20232;-60
2023/11/12 03:46:54;;;;;;;37.53;21.52;;;6.10;99.90;;;;;;5103410;27;20219;-60
2023/11/12 03:49:20;;;;;;;33.90;20.60;;;6.10;99.90;;;;;;5066024;27;20192;-61
2023/11/12 03:51:47;;;;;;;35.58;21.80;;;6.10;99.90;;;;;;5102866;27;20656;-59
2023/11/12 03:54:13;;;;;;;37.92;22.17;;;6.10;99.90;;;;;;5086470;27;20223;-57
2023/11/12 03:56:39;;;;;;;39.17;21.15;;;6.10;99.90;;;;;;5096344;27;21013;-61
2023/11/12 03:59:05;;;;;;;39.28;22.02;;;6.10;99.90;;;;;;5087434;27;20668;-59
2023/11/12 04:01:31;;;;;;;35.45;22.27;;;6.00;99.90;;;;;;5122039;27;20191;-57
2023/11/12 04:03:57;;;;;;;41.33;22.40;;;6.00;99.90;;;;;;5121466;27;20216;-60
2023/11/12 04:06:23;;;;;;;40.53;22.60;;;6.00;99.90;;;;;;5087382;27;20192;-57
2023/11/12 04:08:49;;;;;;;37.45;21.98;;;6.10;99.90;;;;;;5087023;27;20180;-59
2023/11/12 04:11:15;;;;;;;39.95;23.45;;;6.10;99.90;;;;;;5122216;27;20189;-60
2023/11/12 04:13:41;;;;;;;40.13;22.75;;;6.00;99.90;;;;;;5121584;27;20195;-59
2023/11/12 04:16:08;;;;;;;40.17;23.67;;;6.00;99.90;;;;;;5103668;27;20229;-55
2023/11/12 04:18:36;;;;;;;40.03;23.55;;;6.00;99.90;;;;;;5121561;27;20187;-59
2023/11/12 04:21:03;;;;;;;41.00;24.65;;;6.00;99.90;;;;;;5121839;27;20186;-59
2023/11/12 04:23:29;;;;;;;43.17;24.67;;;6.10;99.90;;;;;;5102864;27;20212;-57
2023/11/12 04:25:55;;;;;;;51.35;25.67;;;6.10;99.90;;;;;;5094891;27;20652;-56
2023/11/12 04:28:25;;;;;;;53.10;25.48;;;6.10;99.90;;;;;;5121993;27;20188;-58
2023/11/12 04:30:51;;;;;;;42.97;24.80;;;6.10;99.90;;;;;;5102860;27;20200;-59
2023/11/12 04:33:19;;;;;;;45.42;25.52;;;6.10;99.90;;;;;;5122043;27;20193;-54
2023/11/12 04:35:47;;;;;;;38.92;24.33;;;6.10;99.90;;;;;;5121630;27;20203;-59
2023/11/12 04:38:13;;;;;;;41.13;24.27;;;6.20;99.90;;;;;;5103527;27;20188;-54
2023/11/12 04:40:39;;;;;;;39.85;24.63;;;6.20;99.90;;;;;;5121252;27;20719;-56
2023/11/12 04:43:06;;;;;;;43.83;26.00;;;6.20;99.90;;;;;;5121465;27;20245;-53
2023/11/12 04:45:32;;;;;;;39.53;24.45;;;6.10;99.90;;;;;;5121271;27;20185;-58
2023/11/12 04:47:58;;;;;;;40.22;24.00;;;6.10;99.90;;;;;;5102735;27;20549;-55
2023/11/12 04:50:23;;;;;;;44.47;24.92;;;6.10;99.90;;;;;;5122042;27;20586;-61
2023/11/12 04:52:49;;;;;;;40.63;24.80;;;6.10;99.90;;;;;;5102681;28;20644;-56
2023/11/12 04:55:15;;;;;;;39.15;24.10;;;6.00;99.90;;;;;;5101281;28;20981;-59
2023/11/12 04:57:41;;;;;;;40.00;23.90;;;6.10;99.90;;;;;;5103233;28;20274;-53
2023/11/12 05:00:08;;;;;;;42.40;24.92;;;6.10;99.90;;;;;;5121564;28;20183;-54
2023/11/12 05:02:34;;;;;;;43.38;25.50;;;6.00;99.90;;;;;;5121065;28;20189;-55
2023/11/12 05:05:00;;;;;;;46.15;25.75;;;6.00;99.90;;;;;;5097786;28;20220;-55
2023/11/12 05:07:26;;;;;;;42.85;24.90;;;6.00;99.90;;;;;;5091259;28;20243;-55
2023/11/12 05:09:52;;;;;;;40.72;25.38;;;6.00;99.90;;;;;;5103329;28;20632;-60
2023/11/12 05:12:17;;;;;;;36.15;22.77;;;6.00;99.90;;;;;;5121712;28;20640;-57
2023/11/12 05:14:43;;;;;;;38.70;23.50;;;6.00;99.90;;;;;;5121296;28;20199;-51
2023/11/12 05:17:09;;;;;;;42.10;24.48;;;6.00;99.90;;;;;;5120703;28;20196;-55
2023/11/12 05:19:36;;;;;;;43.28;24.48;;;6.00;99.90;;;;;;5098428;28;20211;-50
2023/11/12 05:22:02;;;;;;;44.15;24.63;;;6.00;99.90;;;;;;5120348;28;20179;-56
2023/11/12 05:24:28;;;;;;;41.10;24.52;;;6.00;99.90;;;;;;5120679;28;20212;-55
2023/11/12 05:26:54;;;;;;;42.60;24.92;;;6.00;99.90;;;;;;5101603;28;20192;-55
2023/11/12 05:29:20;;;;;;;44.85;26.48;;;6.00;99.90;;;;;;5081194;28;20189;-55
2023/11/12 05:31:46;;;;;;;47.05;25.70;;;6.00;99.90;;;;;;5120391;28;20196;-58
2023/11/12 05:34:13;;;;;;;41.95;26.17;;;6.00;99.90;;;;;;5121131;28;20213;-55
2023/11/12 05:36:39;;;;;;;42.67;24.42;;;6.00;99.90;;;;;;5101671;28;20184;-60
2023/11/12 05:39:06;;;;;;;38.45;24.08;;;6.10;99.90;;;;;;5120910;28;20661;-58
2023/11/12 05:41:32;;;;;;;39.80;24.38;;;6.10;99.90;;;;;;5121430;27;21066;-59
2023/11/12 05:43:58;;;;;;;39.33;23.02;;;6.00;99.90;;;;;;5125130;27;20233;-58
2023/11/12 05:46:24;;;;;;;37.42;23.58;;;6.10;99.90;;;;;;5123963;27;20180;-60
2023/11/12 05:48:49;;;;;;;36.30;23.05;;;6.00;99.90;;;;;;5106632;27;20257;-55
2023/11/12 05:51:15;;;;;;;38.70;23.02;;;6.10;99.90;;;;;;5123318;27;20188;-54
2023/11/12 05:53:41;;;;;;;39.38;23.33;;;6.10;99.90;;;;;;5124352;27;20560;-60
2023/11/12 05:56:07;;;;;;;35.25;22.60;;;6.00;99.90;;;;;;5124131;27;20195;-56
2023/11/12 05:58:34;;;;;;;37.15;23.17;;;6.00;99.90;;;;;;5123905;27;20185;-56
2023/11/12 06:01:00;;;;;;;38.22;23.42;;;6.10;99.90;;;;;;5106568;27;20560;-56
2023/11/12 06:03:25;;;;;;;42.38;23.98;;;6.10;99.90;;;;;;5124542;27;20659;-55
2023/11/12 06:05:51;;;;;;;37.67;22.92;;;6.00;99.90;;;;;;5124544;27;20248;-61
2023/11/12 06:08:17;;;;;;;39.70;24.92;;;6.00;99.90;;;;;;5124470;27;20216;-57
2023/11/12 06:10:43;;;;;;;41.55;25.40;;;6.00;99.90;;;;;;5106498;27;20233;-58
2023/11/12 06:13:10;;;;;;;40.28;24.52;;;6.00;99.90;;;;;;5102263;27;20287;-55
2023/11/12 06:15:36;;;;;;;40.35;24.17;;;6.00;99.90;;;;;;5106626;27;20738;-57
2023/11/12 06:18:03;;;;;;;41.15;25.13;;;6.00;99.90;;;;;;5123509;27;20612;-55
2023/11/12 06:20:29;;;;;;;39.03;24.08;;;6.00;99.90;;;;;;5106818;27;20557;-57
2023/11/12 06:22:56;;;;;;;37.88;24.75;;;6.00;99.90;;;;;;5124673;27;20287;-56
2023/11/12 06:25:23;;;;;;;41.25;24.25;;;5.90;99.90;;;;;;5105752;27;20200;-53
2023/11/12 06:27:50;;;;;;;38.47;23.55;;;5.90;99.90;;;;;;5124076;27;20954;-57
2023/11/12 06:30:16;;;;;;;39.47;24.27;;;5.90;99.90;;;;;;5125735;27;20188;-57
2023/11/12 06:32:43;;;;;;;43.33;25.08;;;5.90;99.90;;;;;;5124835;27;20498;-51
2023/11/12 06:35:09;;;;;;;41.40;24.70;;;5.90;99.90;;;;;;5123506;27;20181;-57
2023/11/12 06:37:35;;;;;;;43.63;24.83;;;5.90;99.90;;;;;;5124885;27;20546;-55
2023/11/12 06:40:01;;;;;;;41.10;25.63;;;5.80;99.90;;;;;;5124065;27;20188;-51
2023/11/12 06:42:27;;;;;;;40.75;25.58;;;5.80;99.90;;;;;;5124888;27;20537;-58
2023/11/12 06:44:53;;;;;;;38.97;25.48;;;5.70;99.90;;;;;;5104138;27;20229;-57
2023/11/12 06:47:19;;;;;;;40.75;25.83;;;5.70;99.90;;;;;;5124022;27;20990;-55
2023/11/12 06:49:45;;;;;;;40.38;26.33;;;5.70;99.90;;;;;;5124140;27;20192;-57
2023/11/12 06:52:11;;;;;;;43.90;26.63;;;5.70;99.90;;;;;;5123223;27;20190;-56
2023/11/12 06:54:39;;;;;;;41.67;26.45;;;5.70;99.90;;;;;;5124652;27;20591;-56
2023/11/12 06:57:05;;;;;;;45.22;27.42;;;5.70;99.90;;;;;;5122935;27;20192;-56
2023/11/12 06:59:31;;;;;;;45.35;26.88;;;5.70;99.90;;;;;;5106047;27;20697;-56
2023/11/12 07:01:57;;;;;;;51.90;27.38;;;5.70;99.90;;;;;;5124061;27;20299;-56
2023/11/12 07:04:23;;;;;;;52.80;29.00;;;5.70;99.90;;;;;;5124422;27;20208;-53
2023/11/12 07:06:49;;;;;;;58.97;29.52;;;5.70;99.90;;;;;;5123304;27;20196;-58
2023/11/12 07:09:15;;;;;;;59.17;29.23;;;5.70;99.90;;;;;;5103713;27;20200;-58
2023/11/12 07:11:45;;;;;;;70.28;30.02;;;5.70;99.90;;;;;;5124072;27;20192;-61
2023/11/12 07:14:11;;;;;;;66.72;29.55;;;5.70;99.90;;;;;;5087100;27;20252;-55
2023/11/12 07:16:37;;;;;;;60.72;29.98;;;5.80;99.90;;;;;;5122591;27;20249;-58
2023/11/12 07:19:04;;;;;;;74.90;29.77;;;5.80;99.90;;;;;;5123783;27;20188;-59
2023/11/12 07:21:31;;;;;;;53.53;29.60;;;5.80;99.90;;;;;;5123220;27;20192;-55
2023/11/12 07:23:58;;;;;;;51.85;28.75;;;5.80;99.90;;;;;;5123406;27;20209;-51
2023/11/12 07:26:24;;;;;;;58.80;28.80;;;5.80;99.90;;;;;;5104239;27;20196;-51
2023/11/12 07:28:54;;;;;;;47.60;28.58;;;5.80;99.90;;;;;;5088050;27;20192;-54
2023/11/12 07:31:23;;;;;;;53.05;28.38;;;5.80;99.90;;;;;;5105383;27;20184;-52
2023/11/12 07:33:49;;;;;;;44.95;27.60;;;5.80;99.90;;;;;;5104683;27;20198;-56
2023/11/12 07:36:16;;;;;;;45.20;27.58;;;5.80;99.90;;;;;;5122696;27;20196;-53
2023/11/12 07:38:42;;;;;;;49.17;28.08;;;5.80;99.90;;;;;;5123255;27;20271;-54
2023/11/12 07:41:08;;;;;;;47.50;28.40;;;5.80;99.90;;;;;;5123351;27;20180;-55
2023/11/12 07:43:36;;;;;;;48.38;27.17;;;5.90;99.90;;;;;;5095850;27;20240;-55
2023/11/12 07:46:03;;;;;;;43.53;27.42;;;5.90;99.90;;;;;;5121942;27;20176;-52
2023/11/12 07:48:30;;;;;;;41.03;25.38;;;5.80;99.90;;;;;;5103139;27;20643;-52
2023/11/12 07:50:59;;;;;;;40.60;25.38;;;5.90;99.90;;;;;;5122687;27;21032;-57
2023/11/12 07:53:28;;;;;;;37.33;23.67;;;5.90;99.90;;;;;;5104386;27;20172;-55
2023/11/12 07:55:54;;;;;;;38.50;24.42;;;5.90;99.90;;;;;;5122890;27;20180;-58
2023/11/12 07:58:22;;;;;;;39.50;24.88;;;6.00;99.90;;;;;;5095317;27;20190;-56
2023/11/12 08:00:47;;;;;;;35.28;24.05;;;6.00;99.90;;;;;;5122847;27;20203;-54
2023/11/12 08:03:14;;;;;;;32.45;22.17;;;6.10;99.90;;;;;;5122953;27;20236;-52
2023/11/12 08:05:40;;;;;;;34.45;23.15;;;6.10;99.90;;;;;;5087044;27;20184;-57
2023/11/12 08:08:07;;;;;;;29.77;21.85;;;6.10;99.90;;;;;;5122377;27;20193;-52
2023/11/12 08:10:37;;;;;;;31.42;22.25;;;6.20;99.90;;;;;;5087844;27;20540;-56
2023/11/12 08:13:04;;;;;;;31.45;22.23;;;6.20;99.90;;;;;;5087404;27;20438;-55
2023/11/12 08:15:30;;;;;;;30.58;21.80;;;6.20;99.90;;;;;;5088621;27;20184;-54
2023/11/12 08:17:56;;;;;;;31.35;21.63;;;6.30;99.90;;;;;;5121143;27;20569;-53
2023/11/12 08:20:22;;;;;;;29.83;21.00;;;6.30;99.90;;;;;;5122412;27;20196;-59
2023/11/12 08:22:48;;;;;;;28.70;20.30;;;6.30;99.90;;;;;;5121195;27;20216;-56
2023/11/12 08:25:14;;;;;;;28.77;19.80;;;6.30;99.90;;;;;;5123029;27;20386;-55
2023/11/12 08:27:40;;;;;;;26.70;19.75;;;6.30;99.90;;;;;;5122054;27;20216;-52
2023/11/12 08:30:06;;;;;;;30.15;19.30;;;6.40;99.90;;;;;;5104196;27;20180;-55
2023/11/12 08:32:34;;;;;;;26.05;19.10;;;6.40;99.90;;;;;;5121629;27;20300;-55
2023/11/12 08:35:01;;;;;;;28.02;18.92;;;6.40;99.90;;;;;;5102869;27;20275;-56
2023/11/12 08:37:27;;;;;;;24.42;17.90;;;6.50;99.90;;;;;;5121730;27;20202;-57
2023/11/12 08:39:53;;;;;;;20.90;16.10;;;6.50;99.90;;;;;;5103805;27;20628;-53
2023/11/12 08:42:19;;;;;;;24.33;17.15;;;6.50;99.90;;;;;;5121193;27;20188;-57
2023/11/12 08:44:45;;;;;;;24.17;17.02;;;6.60;99.90;;;;;;5121504;27;20232;-58
2023/11/12 08:47:11;;;;;;;22.10;15.75;;;6.60;99.90;;;;;;5103659;27;20192;-57
2023/11/12 08:49:37;;;;;;;23.63;15.65;;;6.70;99.90;;;;;;5103366;28;20601;-56
2023/11/12 08:52:03;;;;;;;20.73;14.57;;;6.80;99.90;;;;;;5120050;27;20192;-53
2023/11/12 08:54:29;;;;;;;22.33;15.07;;;6.80;99.90;;;;;;5121096;27;20275;-54
2023/11/12 08:56:55;;;;;;;18.13;13.63;;;6.90;99.90;;;;;;5121198;28;20202;-57
2023/11/12 08:59:22;;;;;;;20.73;14.65;;;7.00;99.90;;;;;;5123139;28;20188;-55
2023/11/12 09:01:48;;;;;;;21.30;14.23;;;7.00;99.90;;;;;;5121544;28;21215;-57
2023/11/12 09:04:14;;;;;;;19.35;14.20;;;7.10;99.90;;;;;;5122472;28;20746;-55
2023/11/12 09:06:40;;;;;;;18.25;13.85;;;7.20;99.90;;;;;;5121773;28;20269;-55
2023/11/12 09:09:08;;;;;;;18.17;13.55;;;7.20;99.90;;;;;;5122179;28;20188;-56
2023/11/12 09:11:34;;;;;;;21.85;13.32;;;7.20;99.90;;;;;;5120616;28;20199;-58
2023/11/12 09:14:04;;;;;;;19.92;14.02;;;7.30;99.90;;;;;;5121260;28;20701;-57
2023/11/12 09:16:31;;;;;;;20.50;13.70;;;7.40;99.90;;;;;;5124769;27;20180;-54
2023/11/12 09:18:57;;;;;;;18.05;13.38;;;7.30;99.90;;;;;;5124996;27;20180;-57
2023/11/12 09:21:23;;;;;;;20.45;13.80;;;7.40;99.90;;;;;;5124899;27;20188;-57
2023/11/12 09:23:50;;;;;;;20.27;14.13;;;7.50;99.90;;;;;;5125828;27;20203;-55
2023/11/12 09:26:21;;;;;;;19.25;13.27;;;7.50;99.90;;;;;;5125102;27;20497;-57
2023/11/12 09:28:47;;;;;;;18.38;13.75;;;7.50;99.90;;;;;;5125159;27;20276;-57
2023/11/12 09:31:13;;;;;;;18.27;13.68;;;7.60;99.90;;;;;;5125425;27;20915;-54
2023/11/12 09:33:39;;;;;;;17.73;14.23;;;7.60;99.90;;;;;;5100901;27;20180;-57
2023/11/12 09:36:06;;;;;;;20.02;14.45;;;7.60;99.90;;;;;;5106930;27;20192;-55
2023/11/12 09:38:36;;;;;;;23.65;13.82;;;7.70;99.90;;;;;;5125528;27;20648;-57
2023/11/12 09:41:03;;;;;;;20.80;14.52;;;7.70;99.90;;;;;;5106299;27;20230;-56
2023/11/12 09:43:30;;;;;;;19.35;14.07;;;7.80;99.90;;;;;;5125370;27;20232;-56
2023/11/12 09:45:57;;;;;;;19.80;14.27;;;7.80;99.90;;;;;;5125276;27;20225;-56
2023/11/12 09:48:35;;;;;;;23.05;14.40;;;7.90;99.90;;;;;;5124957;27;20197;-57
2023/11/12 09:51:05;;;;;;;19.05;13.90;;;7.90;99.90;;;;;;5124816;27;20197;-57
2023/11/12 09:53:44;;;;;;;21.17;13.45;;;8.00;99.90;;;;;;5124854;27;20208;-55
2023/11/12 09:56:10;;;;;;;16.70;12.43;;;8.00;99.90;;;;;;5125350;27;20180;-59
2023/11/12 09:58:41;;;;;;;18.15;13.75;;;8.10;99.90;;;;;;5105672;27;20192;-52
2023/11/12 10:01:11;;;;;;;24.75;13.50;;;8.10;99.90;;;;;;5125200;27;20505;-59
2023/11/12 10:03:38;;;;;;;20.58;13.90;;;8.20;99.90;;;;;;5106248;27;20192;-57
2023/11/12 10:06:06;;;;;;;20.17;14.63;;;8.20;99.90;;;;;;5125578;27;20187;-55
2023/11/12 10:08:35;;;;;;;21.75;14.48;;;8.30;99.90;;;;;;5105851;27;20188;-54
2023/11/12 10:11:23;;;;;;;19.25;14.13;;;8.30;99.90;;;;;;5089829;27;20184;-55
2023/11/12 10:13:51;;;;;;;19.65;13.80;;;8.30;99.90;;;;;;5124340;27;20229;-58
2023/11/12 10:16:21;;;;;;;19.17;13.07;;;8.40;99.90;;;;;;5106413;27;20204;-59
2023/11/12 10:18:47;;;;;;;16.67;12.50;;;8.40;99.90;;;;;;5107370;27;20211;-58
2023/11/12 10:21:13;;;;;;;16.92;12.02;;;8.40;99.90;;;;;;5123903;27;20212;-52
2023/11/12 10:23:39;;;;;;;21.55;12.82;;;8.50;99.90;;;;;;5123866;27;21244;-57
2023/11/12 10:26:11;;;;;;;16.42;12.10;;;8.50;99.90;;;;;;5105818;27;20187;-52
2023/11/12 10:28:37;;;;;;;19.77;13.02;;;8.60;99.90;;;;;;5124055;27;20172;-52
2023/11/12 10:31:04;;;;;;;16.10;11.52;;;8.60;99.90;;;;;;5072467;27;20329;-57
2023/11/12 10:33:30;;;;;;;16.25;11.23;;;8.70;99.90;;;;;;5124977;27;20248;-56
2023/11/12 10:35:56;;;;;;;16.90;11.73;;;8.70;99.90;;;;;;5122896;27;20556;-56
2023/11/12 10:38:23;;;;;;;16.52;11.25;;;8.70;99.90;;;;;;5124227;27;20193;-60
2023/11/12 10:41:03;;;;;;;17.42;11.75;;;8.80;99.90;;;;;;5104741;27;20192;-56
2023/11/12 10:43:33;;;;;;;18.05;11.77;;;8.80;99.90;;;;;;5124384;27;21217;-59
2023/11/12 10:46:04;;;;;;;14.20;12.02;;;8.80;99.90;;;;;;5103895;27;20246;-57
2023/11/12 10:48:35;;;;;;;14.80;11.70;;;8.80;99.90;;;;;;5124965;27;20191;-57
2023/11/12 10:51:04;;;;;;;15.77;11.98;;;8.90;99.90;;;;;;5123408;27;20177;-55
2023/11/12 10:53:31;;;;;;;17.55;12.75;;;8.90;99.90;;;;;;5104530;27;20741;-57
2023/11/12 10:56:01;;;;;;;17.17;12.00;;;9.00;99.90;;;;;;5123747;27;20172;-55
2023/11/12 10:58:31;;;;;;;19.15;12.63;;;9.00;99.90;;;;;;5124086;27;20187;-56
2023/11/12 11:01:01;;;;;;;18.02;13.52;;;9.10;99.90;;;;;;5123862;27;20188;-54
2023/11/12 11:03:29;;;;;;;17.33;13.45;;;9.10;99.90;;;;;;5122450;27;20200;-53
2023/11/12 11:05:59;;;;;;;19.90;13.85;;;9.10;99.90;;;;;;5088664;27;20695;-51
2023/11/12 11:08:26;;;;;;;21.30;14.05;;;9.10;99.90;;;;;;5123760;27;20212;-55
2023/11/12 11:10:53;;;;;;;19.52;13.60;;;9.20;99.90;;;;;;5123605;27;20196;-57
2023/11/12 11:13:19;;;;;;;19.38;14.23;;;9.20;99.90;;;;;;5122172;27;20235;-54
2023/11/12 11:15:55;;;;;;;17.55;14.38;;;9.20;99.90;;;;;;5106065;27;20241;-56
2023/11/12 11:18:35;;;;;;;24.50;15.10;;;9.20;99.90;;;;;;5123128;27;20209;-56
2023/11/12 11:21:15;;;;;;;20.35;14.93;;;9.20;99.90;;;;;;5123888;27;20180;-55
2023/11/12 11:23:41;;;;;;;18.58;14.02;;;9.20;99.90;;;;;;5123080;27;20211;-57
2023/11/12 11:26:42;;;;;;;23.02;14.48;;;9.20;99.90;;;;;;5123263;27;20191;-54
2023/11/12 11:29:09;;;;;;;19.35;14.95;;;9.20;99.90;;;;;;5105052;27;20603;-57
2023/11/12 11:31:56;;;;;;;19.20;14.70;;;9.20;99.90;;;;;;5123515;27;20276;-54
2023/11/12 11:34:39;;;;;;;20.30;15.02;;;9.20;99.90;;;;;;5106658;27;20203;-57
2023/11/12 11:37:05;;;;;;;18.90;14.13;;;9.20;99.90;;;;;;5122769;27;20176;-57
2023/11/12 11:39:32;;;;;;;21.15;14.85;;;9.20;99.90;;;;;;5094763;27;20184;-55
2023/11/12 11:42:00;;;;;;;20.38;14.30;;;9.20;99.90;;;;;;5124097;27;20261;-54
2023/11/12 11:44:38;;;;;;;17.83;13.93;;;9.30;99.90;;;;;;5121394;27;20221;-55
2023/11/12 11:47:18;;;;;;;17.15;13.85;;;9.30;99.90;;;;;;5089461;27;20189;-52
2023/11/12 11:49:46;;;;;;;18.98;13.68;;;9.30;99.90;;;;;;5088374;27;20884;-55
2023/11/12 11:52:24;;;;;;;21.25;13.15;;;9.40;99.90;;;;;;5122187;27;20616;-51
2023/11/12 11:54:54;;;;;;;18.35;13.23;;;9.40;99.90;;;;;;5122700;27;20689;-58
2023/11/12 11:57:25;;;;;;;17.63;13.65;;;9.40;99.90;;;;;;5122923;27;20192;-55
2023/11/12 11:59:56;;;;;;;17.98;13.65;;;9.40;99.90;;;;;;5122652;27;20215;-55
2023/11/12 12:02:23;;;;;;;18.95;13.75;;;9.40;99.90;;;;;;5122012;27;20184;-55
2023/11/12 12:04:57;;;;;;;16.80;12.48;;;9.50;99.90;;;;;;5122265;27;20219;-57
2023/11/12 12:07:24;;;;;;;20.73;13.95;;;9.50;99.90;;;;;;5121785;27;20184;-59
2023/11/12 12:09:53;;;;;;;18.85;13.20;;;9.50;99.90;;;;;;5121665;27;20184;-58
2023/11/12 12:12:19;;;;;;;15.93;11.98;;;9.50;99.90;;;;;;5104523;27;20226;-58
2023/11/12 12:14:46;;;;;;;16.98;12.85;;;9.50;99.90;;;;;;5089928;27;20253;-56
2023/11/12 12:17:13;;;;;;;15.90;13.02;;;9.50;99.90;;;;;;5120375;27;20566;-59
2023/11/12 12:19:40;;;;;;;17.58;13.73;;;9.50;99.90;;;;;;5102980;27;20230;-57
2023/11/12 12:22:07;;;;;;;20.27;13.32;;;9.50;99.90;;;;;;5102244;27;20196;-57
2023/11/12 12:24:37;;;;;;;18.05;12.90;;;9.60;99.90;;;;;;5122048;27;20303;-53
2023/11/12 12:27:12;;;;;;;18.17;12.93;;;9.60;99.90;;;;;;5092161;27;20192;-54
2023/11/12 12:29:45;;;;;;;21.15;14.20;;;9.60;99.90;;;;;;5120844;27;20168;-54
2023/11/12 12:32:17;;;;;;;19.33;13.55;;;9.60;99.90;;;;;;5103445;27;20177;-57
2023/11/12 12:34:56;;;;;;;16.83;12.82;;;9.60;99.90;;;;;;5121904;27;20181;-56
2023/11/12 12:37:29;;;;;;;17.95;13.27;;;9.60;99.90;;;;;;5121212;27;20571;-54
2023/11/12 12:40:13;;;;;;;17.08;12.57;;;9.60;99.90;;;;;;5122182;27;20801;-57